Time;durP1;ratioP1;P1;durP2;ratioP2;P2;SDS_P1;SDS_P2;PMS_P1;PMS_P2;Temp;Humidity;BMP_temperature;BMP_pressure;BME280_temperature;BME280_humidity;BME280_pressure;Samples;Min_cycle;Max_cycle;Signal;HPM_P1;HPM_P2
2022/10/10 00:00:02;;;;;;;8.43;3.40;;;15.80;71.70;;;;;;5079712;28;20086;-79
2022/10/10 00:02:28;;;;;;;8.65;4.00;;;15.70;72.20;;;;;;5093460;28;20706;-79
2022/10/10 00:04:54;;;;;;;7.75;4.00;;;15.70;72.30;;;;;;5095584;28;20085;-78
2022/10/10 00:07:20;;;;;;;6.10;3.72;;;15.70;72.40;;;;;;5098021;28;20107;-79
2022/10/10 00:09:46;;;;;;;9.15;4.20;;;15.70;72.20;;;;;;5097539;28;20103;-79
2022/10/10 00:12:12;;;;;;;7.40;3.88;;;15.80;71.90;;;;;;5097732;28;20654;-79
2022/10/10 00:14:37;;;;;;;7.55;4.25;;;15.80;71.90;;;;;;5082672;28;20067;-79
2022/10/10 00:17:03;;;;;;;7.75;3.72;;;15.70;72.30;;;;;;5097633;28;20742;-79
2022/10/10 00:19:29;;;;;;;10.73;4.15;;;15.70;72.40;;;;;;5096657;28;20403;-79
2022/10/10 00:21:57;;;;;;;6.13;3.75;;;15.80;72.20;;;;;;5100850;27;20035;-79
2022/10/10 00:24:22;;;;;;;6.40;3.55;;;15.80;71.90;;;;;;5138615;27;20102;-79
2022/10/10 00:26:48;;;;;;;11.00;3.63;;;15.80;71.90;;;;;;5100337;27;20890;-79
2022/10/10 00:29:14;;;;;;;5.65;3.08;;;15.80;72.10;;;;;;5097515;28;20031;-79
2022/10/10 00:31:39;;;;;;;7.47;3.70;;;15.80;72.30;;;;;;5078995;28;20028;-79
2022/10/10 00:34:05;;;;;;;7.07;3.83;;;15.70;72.40;;;;;;5097268;28;20024;-79
2022/10/10 00:36:30;;;;;;;9.57;3.85;;;15.70;72.40;;;;;;5097171;28;20392;-79
2022/10/10 00:38:56;;;;;;;7.47;3.67;;;15.70;72.40;;;;;;5096705;28;20391;-79
2022/10/10 00:41:22;;;;;;;13.35;4.30;;;15.70;72.70;;;;;;5096960;28;20032;-79
2022/10/10 00:44:03;;;;;;;5.72;3.42;;;15.70;72.50;;;;;;5097170;28;20028;-79
2022/10/10 00:46:29;;;;;;;5.18;3.38;;;15.70;72.40;;;;;;5097163;28;20031;-79
2022/10/10 00:48:54;;;;;;;7.07;3.10;;;15.70;72.60;;;;;;5096835;28;20032;-79
2022/10/10 00:51:20;;;;;;;5.53;3.38;;;15.70;72.70;;;;;;5097101;28;20430;-79
2022/10/10 00:53:51;;;;;;;8.23;3.47;;;15.70;72.50;;;;;;5097081;28;20016;-79
2022/10/10 00:56:21;;;;;;;7.13;3.50;;;15.70;72.20;;;;;;5096898;28;20032;-78
2022/10/10 00:58:51;;;;;;;6.57;3.50;;;15.70;72.60;;;;;;5096817;28;20059;-79
2022/10/10 01:01:16;;;;;;;6.77;4.03;;;15.70;72.90;;;;;;5095982;28;20486;-79
2022/10/10 01:03:42;;;;;;;5.32;3.13;;;15.70;72.80;;;;;;5078579;28;20028;-79
2022/10/10 01:06:08;;;;;;;4.95;3.70;;;15.70;73.00;;;;;;5078468;28;20034;-79
2022/10/10 01:08:35;;;;;;;8.23;3.83;;;15.70;73.00;;;;;;5096441;28;20038;-79
2022/10/10 01:11:22;;;;;;;11.57;4.60;;;15.80;72.90;;;;;;5096783;28;20068;-79
2022/10/10 01:14:06;;;;;;;7.65;4.10;;;15.80;72.80;;;;;;5078320;28;20024;-79
2022/10/10 01:16:52;;;;;;;7.47;3.97;;;15.80;72.90;;;;;;5078036;28;20028;-79
2022/10/10 01:19:48;;;;;;;10.82;3.78;;;15.80;73.10;;;;;;5077739;28;20028;-79
2022/10/10 01:22:31;;;;;;;6.45;3.67;;;15.80;73.10;;;;;;5104827;27;20023;-79
2022/10/10 01:25:21;;;;;;;7.57;3.95;;;15.80;73.30;;;;;;5126228;27;20053;-78
2022/10/10 01:28:21;;;;;;;5.38;3.25;;;15.80;73.40;;;;;;5116744;28;20024;-79
2022/10/10 01:30:48;;;;;;;7.45;3.65;;;15.80;73.70;;;;;;5065995;28;20483;-78
2022/10/10 01:33:18;;;;;;;6.00;3.63;;;15.80;73.40;;;;;;5106195;28;20031;-79
2022/10/10 01:36:02;;;;;;;7.28;3.88;;;15.80;73.40;;;;;;5077954;28;20028;-79
2022/10/10 01:38:56;;;;;;;6.97;4.15;;;15.80;73.50;;;;;;5095426;28;20063;-79
2022/10/10 01:41:37;;;;;;;5.15;3.13;;;15.80;73.10;;;;;;5096054;28;20032;-79
2022/10/10 01:44:03;;;;;;;6.25;3.60;;;15.80;73.60;;;;;;5095881;28;20372;-79
2022/10/10 01:46:31;;;;;;;6.25;3.05;;;15.80;73.60;;;;;;5096002;28;20115;-79
2022/10/10 01:48:58;;;;;;;9.93;4.00;;;15.80;73.80;;;;;;5095678;28;20032;-79
2022/10/10 01:51:38;;;;;;;8.10;3.72;;;15.80;73.40;;;;;;5095915;28;20020;-79
2022/10/10 01:54:04;;;;;;;;;;;15.80;73.90;;;;;;5078020;28;20031;-79
2022/10/10 01:56:42;;;;;;;7.50;3.42;;;15.80;73.60;;;;;;5095842;28;19956;-79
2022/10/10 01:59:20;;;;;;;8.52;3.97;;;15.80;73.50;;;;;;5094979;28;20487;-78
2022/10/10 02:02:19;;;;;;;6.80;3.78;;;15.90;73.80;;;;;;5095627;28;20028;-79
2022/10/10 02:05:23;;;;;;;5.82;4.00;;;15.90;73.60;;;;;;5095697;28;20021;-78
2022/10/10 02:07:56;;;;;;;6.88;3.40;;;15.90;73.50;;;;;;5054042;28;20044;-79
2022/10/10 02:10:26;;;;;;;9.68;3.90;;;15.90;73.80;;;;;;5095625;28;20388;-79
2022/10/10 02:12:54;;;;;;;7.63;3.78;;;15.90;74.00;;;;;;5077470;28;20024;-79
2022/10/10 02:15:23;;;;;;;8.98;3.67;;;15.90;74.00;;;;;;5094826;28;20035;-79
2022/10/10 02:17:50;;;;;;;9.13;3.92;;;15.90;73.90;;;;;;5095336;28;20031;-79
2022/10/10 02:20:22;;;;;;;6.95;3.17;;;16.00;73.90;;;;;;5077465;28;20478;-78
2022/10/10 02:22:50;;;;;;;5.95;3.65;;;16.00;73.70;;;;;;5113755;27;20024;-79
2022/10/10 02:25:20;;;;;;;5.53;3.53;;;16.00;73.70;;;;;;5136489;28;20390;-79
2022/10/10 02:27:54;;;;;;;10.00;4.00;;;16.00;74.00;;;;;;5095648;28;20024;-79
2022/10/10 02:30:20;;;;;;;10.85;4.28;;;16.00;73.80;;;;;;5095439;28;20028;-79
2022/10/10 02:32:50;;;;;;;9.88;4.47;;;16.00;73.30;;;;;;5095183;28;20028;-79
2022/10/10 02:35:22;;;;;;;;;;;16.00;73.40;;;;;;5095249;28;20035;-79
2022/10/10 02:37:50;;;;;;;7.72;3.88;;;16.00;73.90;;;;;;5095107;28;19942;-79
2022/10/10 02:40:22;;;;;;;7.82;3.97;;;16.00;73.70;;;;;;5095125;28;20060;-79
2022/10/10 02:42:50;;;;;;;10.88;4.50;;;16.00;73.60;;;;;;5095415;28;20028;-79
2022/10/10 02:45:17;;;;;;;9.05;3.63;;;16.00;73.50;;;;;;5087077;28;20559;-79
2022/10/10 02:47:44;;;;;;;13.43;3.83;;;16.00;73.80;;;;;;5097458;28;20023;-79
2022/10/10 02:50:10;;;;;;;11.52;5.10;;;16.00;74.00;;;;;;5101083;28;20044;-78
2022/10/10 02:52:35;;;;;;;10.13;4.10;;;15.90;74.00;;;;;;5099055;28;20020;-79
2022/10/10 02:55:01;;;;;;;8.30;4.38;;;15.90;73.80;;;;;;5098612;28;20039;-79
2022/10/10 02:57:27;;;;;;;8.43;4.10;;;15.90;74.00;;;;;;5099088;28;20020;-79
2022/10/10 02:59:53;;;;;;;9.70;4.65;;;15.90;74.40;;;;;;5099315;28;20036;-79
2022/10/10 03:02:18;;;;;;;9.23;4.15;;;16.00;74.80;;;;;;5098812;28;20028;-79
2022/10/10 03:04:44;;;;;;;8.00;3.88;;;15.90;74.70;;;;;;5099093;28;20069;-79
2022/10/10 03:07:10;;;;;;;6.82;3.72;;;15.90;74.60;;;;;;5080971;28;20032;-79
2022/10/10 03:09:35;;;;;;;8.13;4.50;;;16.00;74.60;;;;;;5098883;28;20028;-78
2022/10/10 03:12:01;;;;;;;7.72;3.60;;;16.00;74.90;;;;;;5098959;28;20157;-79
2022/10/10 03:14:27;;;;;;;8.23;3.55;;;16.00;75.00;;;;;;5097932;28;20169;-79
2022/10/10 03:16:53;;;;;;;6.88;3.58;;;16.00;75.40;;;;;;5098497;28;20031;-79
2022/10/10 03:19:18;;;;;;;7.68;4.00;;;16.00;75.30;;;;;;5098978;28;20112;-79
2022/10/10 03:21:44;;;;;;;6.13;3.53;;;16.00;75.00;;;;;;5099120;28;20418;-79
2022/10/10 03:24:09;;;;;;;7.13;3.63;;;16.10;75.00;;;;;;5126310;27;20455;-78
2022/10/10 03:26:35;;;;;;;6.50;3.47;;;16.10;75.00;;;;;;5098643;28;20081;-79
2022/10/10 03:29:02;;;;;;;6.72;3.95;;;16.10;74.60;;;;;;5098747;28;20071;-79
2022/10/10 03:31:28;;;;;;;8.00;4.32;;;16.10;75.20;;;;;;5097693;28;20726;-79
2022/10/10 03:33:53;;;;;;;9.07;4.50;;;16.10;75.10;;;;;;5098401;28;20108;-79
2022/10/10 03:36:20;;;;;;;8.43;4.25;;;16.10;75.00;;;;;;5098379;28;20047;-79
2022/10/10 03:38:45;;;;;;;7.55;4.13;;;16.10;75.10;;;;;;5098372;28;20075;-79
2022/10/10 03:41:11;;;;;;;10.98;3.65;;;16.10;75.20;;;;;;5098378;28;20023;-78
2022/10/10 03:43:37;;;;;;;9.07;4.57;;;16.10;75.30;;;;;;5098451;28;20062;-79
2022/10/10 03:46:03;;;;;;;6.47;4.38;;;16.00;75.10;;;;;;5080388;28;20032;-79
2022/10/10 03:48:28;;;;;;;6.80;3.53;;;16.10;75.50;;;;;;5097354;28;20407;-79
2022/10/10 03:50:54;;;;;;;6.82;4.03;;;16.10;75.20;;;;;;5098036;28;20025;-79
2022/10/10 03:53:20;;;;;;;6.80;3.97;;;16.00;75.50;;;;;;5098300;28;20419;-79
2022/10/10 03:55:45;;;;;;;12.85;3.75;;;16.00;76.20;;;;;;5098012;28;20549;-79
2022/10/10 03:58:11;;;;;;;6.47;3.42;;;16.00;75.60;;;;;;5079859;28;20377;-79
2022/10/10 04:00:37;;;;;;;10.43;4.97;;;16.00;76.00;;;;;;5096511;28;20049;-79
2022/10/10 04:03:05;;;;;;;7.50;3.90;;;16.00;75.60;;;;;;5097905;28;20141;-79
2022/10/10 04:05:38;;;;;;;8.77;4.53;;;16.00;75.90;;;;;;5097714;28;20031;-79
2022/10/10 04:08:05;;;;;;;7.60;3.88;;;16.00;75.90;;;;;;5097319;28;20149;-79
2022/10/10 04:10:31;;;;;;;8.57;4.43;;;16.00;76.10;;;;;;5097542;28;20035;-79
2022/10/10 04:12:57;;;;;;;11.02;4.15;;;16.00;75.60;;;;;;5079280;28;20024;-79
2022/10/10 04:15:24;;;;;;;7.45;3.90;;;16.00;76.20;;;;;;5097764;28;20020;-79
2022/10/10 04:17:50;;;;;;;11.35;4.43;;;15.90;76.50;;;;;;5097509;28;20042;-79
2022/10/10 04:20:16;;;;;;;7.43;3.85;;;15.90;76.40;;;;;;5097749;28;20024;-79
2022/10/10 04:22:43;;;;;;;11.55;4.60;;;15.90;76.50;;;;;;5097822;28;20036;-79
2022/10/10 04:25:09;;;;;;;11.73;4.80;;;15.90;76.50;;;;;;5078459;28;20020;-79
2022/10/10 04:27:35;;;;;;;9.07;4.72;;;15.80;76.80;;;;;;5097020;28;20028;-79
2022/10/10 04:30:01;;;;;;;17.60;6.07;;;15.70;77.40;;;;;;5097208;28;20507;-78
2022/10/10 04:32:27;;;;;;;21.83;6.50;;;15.70;78.30;;;;;;5079207;28;20542;-76
2022/10/10 04:34:52;;;;;;;19.00;6.22;;;15.70;78.60;;;;;;5097016;28;21499;-78
2022/10/10 04:37:18;;;;;;;17.42;6.30;;;15.60;79.00;;;;;;5097155;28;20085;-79
2022/10/10 04:39:43;;;;;;;27.23;7.10;;;15.60;79.00;;;;;;5097180;28;20077;-78
2022/10/10 04:42:10;;;;;;;18.85;7.00;;;15.70;79.00;;;;;;5096893;28;20031;-78
2022/10/10 04:44:36;;;;;;;17.30;6.97;;;15.70;78.70;;;;;;5093916;28;20093;-78
2022/10/10 04:47:02;;;;;;;20.15;7.40;;;15.80;78.90;;;;;;5096861;28;20024;-77
2022/10/10 04:49:40;;;;;;;23.42;7.68;;;15.90;78.30;;;;;;5096802;28;20119;-76
2022/10/10 04:52:07;;;;;;;17.60;8.02;;;15.90;78.40;;;;;;5096712;28;20100;-76
2022/10/10 04:54:33;;;;;;;25.58;9.32;;;15.90;78.40;;;;;;5096789;28;20083;-76
2022/10/10 04:56:59;;;;;;;26.95;8.55;;;15.90;77.70;;;;;;5096838;28;20028;-76
2022/10/10 04:59:25;;;;;;;33.00;8.02;;;16.00;78.20;;;;;;5096005;28;20086;-77
2022/10/10 05:01:50;;;;;;;26.20;8.50;;;15.90;78.80;;;;;;5105730;27;20035;-76
2022/10/10 05:04:16;;;;;;;31.40;9.90;;;15.90;79.00;;;;;;5112604;28;20030;-75
2022/10/10 05:06:44;;;;;;;32.65;9.35;;;15.90;79.00;;;;;;5084240;28;20031;-75
2022/10/10 05:09:10;;;;;;;28.20;8.63;;;15.90;79.50;;;;;;5102969;28;20028;-76
2022/10/10 05:11:35;;;;;;;31.48;9.02;;;15.90;78.90;;;;;;5112039;28;20153;-76
2022/10/10 05:14:01;;;;;;;32.88;10.30;;;16.00;78.90;;;;;;5108483;28;20031;-76
2022/10/10 05:16:27;;;;;;;30.02;9.45;;;16.00;78.90;;;;;;5096632;28;20047;-75
2022/10/10 05:18:53;;;;;;;30.75;8.73;;;16.00;79.20;;;;;;5079255;28;20036;-75
2022/10/10 05:21:19;;;;;;;29.05;9.43;;;16.00;79.10;;;;;;5101274;28;20800;-76
2022/10/10 05:23:44;;;;;;;38.53;10.13;;;16.00;78.70;;;;;;5118261;27;20403;-75
2022/10/10 05:26:10;;;;;;;25.58;9.60;;;16.00;79.30;;;;;;5078329;28;20462;-75
2022/10/10 05:28:36;;;;;;;33.35;10.50;;;16.00;79.00;;;;;;5096402;28;20028;-77
2022/10/10 05:31:03;;;;;;;32.40;9.80;;;16.00;79.50;;;;;;5096119;28;20039;-77
2022/10/10 05:33:29;;;;;;;31.27;9.77;;;16.00;79.60;;;;;;5096240;28;20116;-77
2022/10/10 05:36:06;;;;;;;40.15;10.70;;;16.00;79.60;;;;;;5094481;28;20052;-77
2022/10/10 05:38:33;;;;;;;41.50;11.20;;;16.00;79.20;;;;;;5095386;28;20063;-77
2022/10/10 05:40:59;;;;;;;27.02;9.88;;;16.00;79.40;;;;;;5098318;28;20073;-76
2022/10/10 05:43:25;;;;;;;34.03;10.68;;;16.00;79.70;;;;;;5107612;28;20116;-76
2022/10/10 05:45:51;;;;;;;34.10;11.23;;;16.00;79.70;;;;;;5096260;28;20035;-76
2022/10/10 05:48:18;;;;;;;39.28;11.80;;;16.00;80.10;;;;;;5100118;28;20051;-76
2022/10/10 05:50:50;;;;;;;24.75;10.20;;;16.00;80.10;;;;;;5105652;28;20102;-79
2022/10/10 05:53:16;;;;;;;39.88;11.25;;;16.10;80.00;;;;;;5096979;28;20023;-78
2022/10/10 05:55:43;;;;;;;39.10;11.65;;;16.10;80.30;;;;;;5114831;28;20024;-78
2022/10/10 05:58:12;;;;;;;37.00;11.48;;;16.10;80.00;;;;;;5092435;28;20024;-78
2022/10/10 06:00:38;;;;;;;44.58;12.60;;;16.10;80.10;;;;;;5079720;28;20128;-78
2022/10/10 06:03:04;;;;;;;36.83;12.35;;;16.10;80.10;;;;;;5115789;28;20026;-78
2022/10/10 06:05:30;;;;;;;37.67;11.88;;;16.10;80.10;;;;;;5108486;28;20016;-78
2022/10/10 06:07:55;;;;;;;41.00;12.60;;;16.10;80.60;;;;;;5094848;28;20055;-78
2022/10/10 06:10:21;;;;;;;42.10;12.43;;;16.00;80.10;;;;;;5096374;28;20034;-78
2022/10/10 06:12:46;;;;;;;39.08;11.40;;;16.10;80.20;;;;;;5115059;28;20035;-78
2022/10/10 06:15:12;;;;;;;48.30;12.20;;;16.10;80.50;;;;;;5104585;28;20043;-78
2022/10/10 06:17:38;;;;;;;34.45;12.00;;;16.10;80.40;;;;;;5077134;28;20028;-78
2022/10/10 06:20:04;;;;;;;40.63;12.18;;;16.10;80.00;;;;;;5095394;28;20052;-78
2022/10/10 06:22:29;;;;;;;37.03;12.60;;;16.10;80.20;;;;;;5106386;27;20023;-78
2022/10/10 06:24:55;;;;;;;43.97;13.02;;;16.10;80.50;;;;;;5115043;28;20024;-78
2022/10/10 06:27:20;;;;;;;41.97;13.48;;;16.00;80.60;;;;;;5097609;28;20089;-78
2022/10/10 06:29:46;;;;;;;38.08;12.50;;;16.10;80.80;;;;;;5095810;28;20077;-79
2022/10/10 06:32:12;;;;;;;33.47;12.80;;;16.10;80.90;;;;;;5097198;28;20031;-78
2022/10/10 06:34:37;;;;;;;31.23;11.05;;;16.10;81.20;;;;;;5099904;28;20028;-78
2022/10/10 06:37:03;;;;;;;51.80;13.48;;;16.10;81.20;;;;;;5095057;28;20119;-78
2022/10/10 06:39:29;;;;;;;33.53;12.25;;;16.10;80.70;;;;;;5095688;28;20036;-78
2022/10/10 06:41:54;;;;;;;43.75;12.45;;;16.00;80.80;;;;;;5095365;28;20024;-78
2022/10/10 06:44:20;;;;;;;43.35;12.70;;;16.10;81.10;;;;;;5077343;28;20423;-78
2022/10/10 06:46:45;;;;;;;37.53;12.85;;;16.10;80.70;;;;;;5094890;28;20503;-78
2022/10/10 06:49:11;;;;;;;47.75;13.45;;;16.10;81.10;;;;;;5095147;28;20036;-78
2022/10/10 06:51:38;;;;;;;39.63;13.75;;;16.10;81.20;;;;;;5095275;28;20024;-79
2022/10/10 06:54:04;;;;;;;54.22;14.73;;;16.10;81.10;;;;;;5085929;28;20012;-78
2022/10/10 06:56:30;;;;;;;46.17;15.25;;;16.00;81.20;;;;;;5115323;28;20088;-78
2022/10/10 06:58:55;;;;;;;35.47;13.40;;;16.10;80.80;;;;;;5106285;28;20040;-78
2022/10/10 07:01:23;;;;;;;50.30;13.52;;;16.20;81.00;;;;;;5098991;28;20024;-77
2022/10/10 07:03:49;;;;;;;49.63;12.73;;;16.20;81.20;;;;;;5094967;28;20039;-77
2022/10/10 07:06:15;;;;;;;47.53;14.48;;;16.20;81.30;;;;;;5094979;28;20023;-78
2022/10/10 07:08:41;;;;;;;39.30;13.02;;;16.30;81.20;;;;;;5094846;28;20036;-78
2022/10/10 07:11:08;;;;;;;44.72;14.48;;;16.20;80.80;;;;;;5104119;28;20505;-77
2022/10/10 07:13:35;;;;;;;37.13;12.70;;;16.30;81.30;;;;;;5104471;28;20020;-78
2022/10/10 07:16:02;;;;;;;41.55;14.27;;;16.30;81.50;;;;;;5094529;28;20024;-78
2022/10/10 07:18:28;;;;;;;38.03;13.00;;;16.30;81.20;;;;;;5098646;28;20028;-78
2022/10/10 07:20:58;;;;;;;39.97;13.70;;;16.30;81.10;;;;;;5097259;28;20031;-77
2022/10/10 07:23:25;;;;;;;44.08;13.68;;;16.30;81.30;;;;;;5109867;28;20513;-77
2022/10/10 07:25:51;;;;;;;41.00;13.13;;;16.30;81.00;;;;;;5095033;28;20081;-77
2022/10/10 07:28:17;;;;;;;36.45;14.23;;;16.30;81.30;;;;;;5094969;28;20047;-77
2022/10/10 07:30:44;;;;;;;37.25;12.60;;;16.30;81.40;;;;;;5095022;28;20020;-77
2022/10/10 07:33:11;;;;;;;39.60;13.73;;;16.30;81.70;;;;;;5094351;28;20024;-77
2022/10/10 07:35:37;;;;;;;30.02;12.55;;;16.30;81.90;;;;;;5097049;28;20069;-77
2022/10/10 07:38:03;;;;;;;35.95;13.48;;;16.30;81.70;;;;;;5098283;28;20040;-78
2022/10/10 07:40:28;;;;;;;39.22;13.95;;;16.40;81.60;;;;;;5080119;28;20024;-77
2022/10/10 07:42:54;;;;;;;40.78;14.70;;;16.40;81.60;;;;;;5098316;28;20024;-78
2022/10/10 07:45:19;;;;;;;36.75;13.50;;;16.40;81.70;;;;;;5098454;28;20027;-77
2022/10/10 07:47:45;;;;;;;35.67;13.27;;;16.40;82.20;;;;;;5079784;28;20028;-78
2022/10/10 07:50:12;;;;;;;36.55;13.45;;;16.50;82.00;;;;;;5096024;28;20045;-78
2022/10/10 07:52:38;;;;;;;35.17;13.90;;;16.50;81.30;;;;;;5108734;28;20127;-77
2022/10/10 07:55:05;;;;;;;35.33;14.05;;;16.60;81.50;;;;;;5118663;28;20035;-78
2022/10/10 07:57:33;;;;;;;37.95;13.20;;;16.70;81.40;;;;;;5095656;28;20035;-77
2022/10/10 08:00:07;;;;;;;30.80;12.18;;;16.70;81.70;;;;;;5098157;28;20035;-78
2022/10/10 08:02:32;;;;;;;36.97;12.70;;;16.70;82.00;;;;;;5097763;28;20034;-78
2022/10/10 08:04:58;;;;;;;33.40;12.35;;;16.70;81.60;;;;;;5098071;28;20051;-78
2022/10/10 08:07:24;;;;;;;35.38;12.27;;;16.70;82.00;;;;;;5097742;28;20024;-78
2022/10/10 08:09:49;;;;;;;32.83;12.63;;;16.70;81.70;;;;;;5097768;28;20032;-77
2022/10/10 08:12:15;;;;;;;33.50;13.27;;;16.80;81.70;;;;;;5116665;28;20106;-77
2022/10/10 08:14:41;;;;;;;36.97;13.00;;;16.80;82.10;;;;;;5108897;28;20036;-77
2022/10/10 08:17:06;;;;;;;25.52;12.48;;;16.80;82.20;;;;;;5097479;28;20028;-77
2022/10/10 08:19:32;;;;;;;30.77;11.43;;;16.80;82.20;;;;;;5097668;28;20466;-78
2022/10/10 08:21:58;;;;;;;28.98;10.05;;;16.90;81.90;;;;;;5106739;27;20016;-77
2022/10/10 08:24:23;;;;;;;35.08;11.88;;;16.90;82.10;;;;;;5120356;27;20048;-77
2022/10/10 08:26:50;;;;;;;26.02;11.45;;;16.90;82.00;;;;;;5128639;27;20521;-77
2022/10/10 08:29:16;;;;;;;27.88;11.95;;;16.90;81.90;;;;;;5099426;28;20028;-78
2022/10/10 08:31:41;;;;;;;26.85;11.55;;;16.90;81.90;;;;;;5116905;28;20027;-77
2022/10/10 08:34:08;;;;;;;26.27;10.75;;;17.00;82.30;;;;;;5117824;28;20027;-77
2022/10/10 08:36:34;;;;;;;25.48;12.13;;;17.00;81.90;;;;;;5098170;28;20503;-77
2022/10/10 08:39:00;;;;;;;25.15;11.02;;;17.00;81.80;;;;;;5117825;28;20114;-77
2022/10/10 08:42:07;;;;;;;24.75;10.57;;;17.00;81.60;;;;;;5117415;28;20024;-78
2022/10/10 08:44:50;;;;;;;21.80;10.38;;;17.10;81.90;;;;;;5066756;28;20043;-77
2022/10/10 08:47:20;;;;;;;25.90;10.48;;;17.10;81.60;;;;;;5098575;28;20028;-77
2022/10/10 08:49:54;;;;;;;28.45;12.43;;;17.20;81.70;;;;;;5096878;28;20056;-77
2022/10/10 08:52:31;;;;;;;22.02;11.50;;;17.20;81.70;;;;;;5117549;28;20020;-77
2022/10/10 08:55:00;;;;;;;29.80;10.85;;;17.20;81.70;;;;;;5103493;28;20109;-77
2022/10/10 08:57:34;;;;;;;27.15;11.43;;;17.30;81.60;;;;;;5095321;28;20052;-77
2022/10/10 09:00:11;;;;;;;23.52;10.73;;;17.30;81.70;;;;;;5096320;28;20028;-77
2022/10/10 09:02:56;;;;;;;31.38;10.90;;;17.40;81.30;;;;;;5096608;28;20024;-77
2022/10/10 09:05:40;;;;;;;22.48;9.98;;;17.50;81.00;;;;;;5095215;28;20122;-77
2022/10/10 09:08:24;;;;;;;23.00;10.02;;;17.60;81.00;;;;;;5116895;28;20024;-78
2022/10/10 09:11:14;;;;;;;20.52;11.00;;;17.70;80.70;;;;;;5115227;28;20103;-78
2022/10/10 09:14:06;;;;;;;23.08;10.18;;;17.90;80.40;;;;;;5096893;28;20024;-78
2022/10/10 09:16:54;;;;;;;27.92;10.38;;;17.90;80.20;;;;;;5096402;28;20024;-78
2022/10/10 09:19:35;;;;;;;22.65;9.63;;;18.10;79.90;;;;;;5096493;28;20032;-78
2022/10/10 09:22:09;;;;;;;30.95;9.45;;;18.10;79.60;;;;;;5085838;27;20116;-78
2022/10/10 09:24:44;;;;;;;23.13;10.05;;;18.20;80.40;;;;;;5119111;27;20038;-77
2022/10/10 09:27:18;;;;;;;28.35;10.35;;;18.20;80.00;;;;;;5137232;27;20023;-78
2022/10/10 09:29:58;;;;;;;25.48;9.27;;;18.30;79.50;;;;;;5130177;27;20067;-78
2022/10/10 09:32:39;;;;;;;31.25;10.07;;;18.40;79.30;;;;;;5098765;28;20024;-77
2022/10/10 09:35:41;;;;;;;21.42;9.45;;;18.60;79.30;;;;;;5096170;28;20034;-77
2022/10/10 09:38:33;;;;;;;21.75;8.93;;;18.80;78.80;;;;;;4994730;28;20042;-76
2022/10/10 09:41:06;;;;;;;19.23;8.52;;;18.90;78.60;;;;;;5093780;28;20204;-76
2022/10/10 09:43:33;;;;;;;25.25;8.73;;;19.10;78.50;;;;;;5096001;28;20491;-76
2022/10/10 09:45:59;;;;;;;19.38;8.27;;;19.10;78.30;;;;;;5099775;28;20028;-77
2022/10/10 09:48:32;;;;;;;15.45;8.68;;;19.10;78.30;;;;;;5109319;28;20163;-77
2022/10/10 09:50:59;;;;;;;22.45;8.88;;;19.20;78.10;;;;;;5095960;28;20496;-77
2022/10/10 09:53:25;;;;;;;21.08;8.23;;;19.30;78.00;;;;;;5108526;28;20016;-77
2022/10/10 09:55:53;;;;;;;20.90;8.63;;;19.30;77.60;;;;;;5096428;28;20031;-77
2022/10/10 09:58:44;;;;;;;23.75;8.40;;;19.40;77.40;;;;;;5095944;28;20016;-78
2022/10/10 10:01:22;;;;;;;16.92;7.25;;;19.70;76.70;;;;;;5087044;28;20052;-77
2022/10/10 10:04:05;;;;;;;17.58;7.05;;;19.90;76.90;;;;;;5095851;28;20060;-77
2022/10/10 10:06:31;;;;;;;23.90;7.63;;;19.90;76.30;;;;;;5077860;28;20503;-77
2022/10/10 10:09:00;;;;;;;16.30;8.02;;;19.90;76.40;;;;;;5095802;28;20016;-77
2022/10/10 10:11:40;;;;;;;21.17;7.80;;;19.90;76.10;;;;;;5107104;28;20027;-77
2022/10/10 10:14:18;;;;;;;16.75;7.80;;;19.90;76.00;;;;;;5116270;28;20019;-77
2022/10/10 10:16:43;;;;;;;16.77;7.60;;;19.90;76.10;;;;;;5092963;28;20123;-78
2022/10/10 10:19:32;;;;;;;16.63;7.90;;;19.90;76.20;;;;;;5085602;28;20076;-77
2022/10/10 10:21:57;;;;;;;19.50;8.07;;;19.80;76.30;;;;;;5088052;28;20028;-77
2022/10/10 10:24:31;;;;;;;24.65;8.40;;;19.90;75.70;;;;;;5104418;28;20035;-77
2022/10/10 10:27:15;;;;;;;25.90;7.95;;;19.90;75.80;;;;;;5115501;28;20020;-77
2022/10/10 10:29:46;;;;;;;22.77;8.15;;;19.80;76.00;;;;;;5089987;28;20031;-77
2022/10/10 10:32:33;;;;;;;20.50;7.18;;;19.70;76.50;;;;;;5091802;28;20103;-77
2022/10/10 10:35:05;;;;;;;17.13;7.60;;;19.70;76.60;;;;;;5100549;28;20080;-77
2022/10/10 10:38:09;;;;;;;16.00;6.63;;;19.70;76.70;;;;;;5091896;28;20046;-77
2022/10/10 10:40:43;;;;;;;14.55;6.85;;;19.60;77.00;;;;;;5097386;28;20650;-77
2022/10/10 10:43:12;;;;;;;17.50;7.10;;;19.60;76.90;;;;;;5108174;28;20099;-77
2022/10/10 10:46:26;;;;;;;19.55;7.40;;;19.60;76.90;;;;;;5076560;28;20035;-77
2022/10/10 10:49:15;;;;;;;24.13;7.85;;;19.70;77.10;;;;;;5048205;28;20051;-77
2022/10/10 10:52:08;;;;;;;20.23;7.47;;;19.60;76.90;;;;;;5092913;28;20514;-78
2022/10/10 10:54:51;;;;;;;21.17;7.40;;;19.60;77.10;;;;;;5095627;28;20078;-77
2022/10/10 10:57:50;;;;;;;16.92;7.20;;;19.70;76.70;;;;;;5094998;28;20024;-77
2022/10/10 11:00:18;;;;;;;17.88;7.90;;;19.70;77.10;;;;;;5095235;28;20020;-76
2022/10/10 11:03:02;;;;;;;18.58;7.13;;;19.80;76.90;;;;;;5095233;28;20032;-77
2022/10/10 11:05:42;;;;;;;15.52;7.88;;;19.80;76.90;;;;;;5095532;28;20099;-77
2022/10/10 11:08:38;;;;;;;24.35;8.27;;;19.80;76.80;;;;;;5095136;28;20050;-76
2022/10/10 11:11:45;;;;;;;16.02;6.90;;;19.90;76.80;;;;;;5088249;28;20051;-77
2022/10/10 11:14:39;;;;;;;16.83;7.38;;;20.00;76.80;;;;;;5101401;28;20118;-77
2022/10/10 11:17:18;;;;;;;23.15;8.27;;;20.00;76.60;;;;;;5112841;28;20027;-77
2022/10/10 11:20:10;;;;;;;23.75;8.05;;;20.10;76.50;;;;;;5080999;28;20036;-77
2022/10/10 11:22:44;;;;;;;17.15;7.93;;;20.00;76.50;;;;;;5082137;28;20036;-77
2022/10/10 11:25:22;;;;;;;13.48;6.90;;;20.00;76.70;;;;;;5088515;28;20031;-77
2022/10/10 11:27:58;;;;;;;17.23;6.97;;;20.00;76.80;;;;;;5093466;28;20035;-76
2022/10/10 11:30:26;;;;;;;12.00;5.90;;;20.00;77.00;;;;;;5099130;28;20035;-79
2022/10/10 11:32:58;;;;;;;13.60;6.05;;;20.10;76.90;;;;;;5100633;28;20020;-76
2022/10/10 11:35:48;;;;;;;13.13;5.32;;;20.20;77.10;;;;;;5118752;28;20042;-76
2022/10/10 11:38:14;;;;;;;;;;;20.30;76.90;;;;;;5111863;28;20043;-76
2022/10/10 11:41:06;;;;;;;10.15;4.28;;;20.40;76.80;;;;;;5112924;28;19907;-80
2022/10/10 11:43:42;;;;;;;11.95;4.80;;;20.40;76.50;;;;;;5118728;28;20655;-80
2022/10/10 11:46:34;;;;;;;8.00;4.07;;;20.40;76.40;;;;;;5117337;28;20106;-80
2022/10/10 11:49:20;;;;;;;12.07;4.03;;;20.30;76.30;;;;;;5081684;28;20032;-81
2022/10/10 11:51:46;;;;;;;7.88;3.50;;;20.40;76.00;;;;;;5091565;28;20036;-77
2022/10/10 11:54:52;;;;;;;6.50;2.95;;;20.50;75.80;;;;;;5100301;28;20019;-76
2022/10/10 11:57:45;;;;;;;7.38;2.83;;;20.50;76.00;;;;;;5093842;28;20020;-76
2022/10/10 12:00:16;;;;;;;5.03;2.63;;;20.50;75.90;;;;;;5094951;28;20032;-76
2022/10/10 12:02:45;;;;;;;9.30;3.15;;;20.50;75.70;;;;;;5103994;28;20035;-76
2022/10/10 12:05:23;;;;;;;8.40;2.75;;;20.50;75.80;;;;;;5096730;28;20036;-76
2022/10/10 12:08:13;;;;;;;9.50;4.28;;;20.50;75.70;;;;;;5097980;28;20161;-76
2022/10/10 12:10:48;;;;;;;7.65;3.40;;;20.60;75.60;;;;;;5102846;28;20119;-76
2022/10/10 12:13:26;;;;;;;8.65;3.15;;;20.70;75.20;;;;;;5118087;28;20521;-76
2022/10/10 12:15:55;;;;;;;5.05;2.50;;;20.70;75.40;;;;;;5114655;28;20028;-77
2022/10/10 12:18:49;;;;;;;6.38;3.22;;;20.70;75.60;;;;;;5111980;28;20024;-76
2022/10/10 12:21:17;;;;;;;11.25;3.15;;;20.80;75.60;;;;;;5085627;28;20383;-76
2022/10/10 12:23:48;;;;;;;9.13;2.58;;;20.90;75.00;;;;;;5100483;28;20364;-77
2022/10/10 12:26:20;;;;;;;5.15;3.05;;;21.20;74.40;;;;;;5115849;28;20039;-76
2022/10/10 12:29:05;;;;;;;5.25;3.05;;;21.20;73.80;;;;;;5099248;28;20038;-77
2022/10/10 12:31:35;;;;;;;5.80;2.72;;;21.20;73.30;;;;;;5098763;28;20070;-76
2022/10/10 12:34:02;;;;;;;9.23;3.17;;;21.10;73.30;;;;;;5117681;28;20087;-76
2022/10/10 12:36:28;;;;;;;5.50;2.90;;;20.90;73.30;;;;;;5092164;28;20047;-76
2022/10/10 12:39:00;;;;;;;7.63;3.42;;;20.80;73.90;;;;;;5097307;28;20020;-77
2022/10/10 12:41:41;;;;;;;10.32;3.42;;;20.70;74.60;;;;;;5079413;28;20036;-77
2022/10/10 12:44:41;;;;;;;10.32;3.50;;;20.50;75.20;;;;;;5099670;28;20082;-76
2022/10/10 12:47:15;;;;;;;10.27;3.92;;;20.40;75.90;;;;;;5078675;28;20399;-77
2022/10/10 12:50:19;;;;;;;10.57;5.07;;;20.20;77.20;;;;;;5079116;28;20047;-77
2022/10/10 12:52:46;;;;;;;12.00;4.90;;;20.10;77.70;;;;;;5083727;28;20039;-77
2022/10/10 12:55:25;;;;;;;12.45;4.95;;;20.00;78.20;;;;;;5097150;28;20020;-77
2022/10/10 12:57:57;;;;;;;6.95;4.57;;;19.90;78.30;;;;;;5109319;28;20105;-77
2022/10/10 13:00:38;;;;;;;8.65;3.78;;;19.90;78.50;;;;;;5096744;28;20036;-77